sensor_id;sensor_type;location;lat;lon;timestamp;P1;durP1;ratioP1;P2;durP2;ratioP2
24739;SDS011;45234;48.148;17.128;2023-05-10T00:00:31;3.63;;;2.92;;
24739;SDS011;45234;48.148;17.128;2023-05-10T00:02:58;3.67;;;2.65;;
24739;SDS011;45234;48.148;17.128;2023-05-10T00:05:26;3.13;;;2.60;;
24739;SDS011;45234;48.148;17.128;2023-05-10T00:07:53;3.80;;;2.63;;
24739;SDS011;45234;48.148;17.128;2023-05-10T00:10:19;4.93;;;2.95;;
24739;SDS011;45234;48.148;17.128;2023-05-10T00:12:46;6.32;;;3.00;;
24739;SDS011;45234;48.148;17.128;2023-05-10T00:15:13;5.72;;;3.00;;
24739;SDS011;45234;48.148;17.128;2023-05-10T00:17:40;5.07;;;2.92;;
24739;SDS011;45234;48.148;17.128;2023-05-10T00:20:07;4.00;;;2.83;;
24739;SDS011;45234;48.148;17.128;2023-05-10T00:22:35;7.35;;;3.25;;
24739;SDS011;45234;48.148;17.128;2023-05-10T00:25:02;4.20;;;2.75;;
24739;SDS011;45234;48.148;17.128;2023-05-10T00:27:29;7.88;;;3.38;;
24739;SDS011;45234;48.148;17.128;2023-05-10T00:29:55;8.65;;;3.60;;
24739;SDS011;45234;48.148;17.128;2023-05-10T00:32:22;6.25;;;3.20;;
24739;SDS011;45234;48.148;17.128;2023-05-10T00:34:49;4.97;;;3.22;;
24739;SDS011;45234;48.148;17.128;2023-05-10T00:37:16;7.53;;;3.22;;
24739;SDS011;45234;48.148;17.128;2023-05-10T00:39:44;6.72;;;3.08;;
24739;SDS011;45234;48.148;17.128;2023-05-10T00:42:11;4.47;;;3.00;;
24739;SDS011;45234;48.148;17.128;2023-05-10T00:44:40;8.07;;;3.30;;
24739;SDS011;45234;48.148;17.128;2023-05-10T00:47:07;3.90;;;2.90;;
24739;SDS011;45234;48.148;17.128;2023-05-10T00:49:34;4.70;;;3.08;;
24739;SDS011;45234;48.148;17.128;2023-05-10T00:52:02;8.63;;;3.20;;
24739;SDS011;45234;48.148;17.128;2023-05-10T00:54:29;4.85;;;3.10;;
24739;SDS011;45234;48.148;17.128;2023-05-10T00:56:56;8.45;;;3.03;;
24739;SDS011;45234;48.148;17.128;2023-05-10T00:59:24;11.65;;;3.63;;
24739;SDS011;45234;48.148;17.128;2023-05-10T01:01:51;4.65;;;3.47;;
24739;SDS011;45234;48.148;17.128;2023-05-10T01:04:18;5.95;;;3.03;;
24739;SDS011;45234;48.148;17.128;2023-05-10T01:06:51;4.35;;;3.28;;
24739;SDS011;45234;48.148;17.128;2023-05-10T01:09:20;4.90;;;3.30;;
24739;SDS011;45234;48.148;17.128;2023-05-10T01:11:48;5.00;;;3.13;;
24739;SDS011;45234;48.148;17.128;2023-05-10T01:14:16;5.97;;;3.65;;
24739;SDS011;45234;48.148;17.128;2023-05-10T01:16:45;7.90;;;3.38;;
24739;SDS011;45234;48.148;17.128;2023-05-10T01:19:24;6.75;;;3.40;;
24739;SDS011;45234;48.148;17.128;2023-05-10T01:27:00;4.40;;;3.28;;
24739;SDS011;45234;48.148;17.128;2023-05-10T01:33:01;6.90;;;3.63;;
24739;SDS011;45234;48.148;17.128;2023-05-10T01:38:29;7.13;;;3.58;;
24739;SDS011;45234;48.148;17.128;2023-05-10T01:46:44;5.65;;;3.78;;
24739;SDS011;45234;48.148;17.128;2023-05-10T01:49:22;6.78;;;3.30;;
24739;SDS011;45234;48.148;17.128;2023-05-10T01:51:53;6.68;;;3.83;;
24739;SDS011;45234;48.148;17.128;2023-05-10T01:54:23;8.63;;;3.60;;
24739;SDS011;45234;48.148;17.128;2023-05-10T01:56:54;5.45;;;4.22;;
24739;SDS011;45234;48.148;17.128;2023-05-10T01:59:28;8.38;;;4.05;;
24739;SDS011;45234;48.148;17.128;2023-05-10T02:01:57;6.82;;;3.90;;
24739;SDS011;45234;48.148;17.128;2023-05-10T02:04:26;4.75;;;3.85;;
24739;SDS011;45234;48.148;17.128;2023-05-10T02:06:54;5.50;;;4.07;;
24739;SDS011;45234;48.148;17.128;2023-05-10T02:09:23;5.28;;;4.10;;
24739;SDS011;45234;48.148;17.128;2023-05-10T02:11:55;5.13;;;3.58;;
24739;SDS011;45234;48.148;17.128;2023-05-10T02:14:24;5.22;;;4.03;;
24739;SDS011;45234;48.148;17.128;2023-05-10T02:16:53;6.57;;;4.45;;
24739;SDS011;45234;48.148;17.128;2023-05-10T02:19:21;4.40;;;3.70;;
24739;SDS011;45234;48.148;17.128;2023-05-10T02:22:09;6.53;;;4.38;;
24739;SDS011;45234;48.148;17.128;2023-05-10T02:24:37;5.70;;;4.15;;
24739;SDS011;45234;48.148;17.128;2023-05-10T02:27:06;5.50;;;4.10;;
24739;SDS011;45234;48.148;17.128;2023-05-10T02:29:35;7.03;;;4.45;;
24739;SDS011;45234;48.148;17.128;2023-05-10T02:32:03;6.60;;;4.43;;
24739;SDS011;45234;48.148;17.128;2023-05-10T02:34:32;7.35;;;4.65;;
24739;SDS011;45234;48.148;17.128;2023-05-10T02:36:59;6.45;;;4.43;;
24739;SDS011;45234;48.148;17.128;2023-05-10T02:39:27;9.63;;;4.82;;
24739;SDS011;45234;48.148;17.128;2023-05-10T02:41:55;7.63;;;4.68;;
24739;SDS011;45234;48.148;17.128;2023-05-10T02:44:24;6.03;;;4.43;;
24739;SDS011;45234;48.148;17.128;2023-05-10T02:46:54;5.65;;;4.25;;
24739;SDS011;45234;48.148;17.128;2023-05-10T02:49:21;6.95;;;4.47;;
24739;SDS011;45234;48.148;17.128;2023-05-10T02:51:49;5.07;;;3.92;;
24739;SDS011;45234;48.148;17.128;2023-05-10T02:54:22;15.77;;;5.43;;
24739;SDS011;45234;48.148;17.128;2023-05-10T02:59:22;8.07;;;4.55;;
24739;SDS011;45234;48.148;17.128;2023-05-10T03:01:49;6.13;;;3.97;;
24739;SDS011;45234;48.148;17.128;2023-05-10T03:04:18;6.88;;;4.60;;
24739;SDS011;45234;48.148;17.128;2023-05-10T03:06:45;9.45;;;4.60;;
24739;SDS011;45234;48.148;17.128;2023-05-10T03:09:12;9.77;;;5.43;;
24739;SDS011;45234;48.148;17.128;2023-05-10T03:12:01;5.78;;;4.20;;
24739;SDS011;45234;48.148;17.128;2023-05-10T03:17:29;7.88;;;4.72;;
24739;SDS011;45234;48.148;17.128;2023-05-10T03:20:12;6.38;;;4.43;;
24739;SDS011;45234;48.148;17.128;2023-05-10T03:23:02;7.30;;;4.47;;
24739;SDS011;45234;48.148;17.128;2023-05-10T03:25:37;8.73;;;5.10;;
24739;SDS011;45234;48.148;17.128;2023-05-10T03:28:06;9.30;;;5.30;;
24739;SDS011;45234;48.148;17.128;2023-05-10T03:30:33;8.77;;;5.15;;
24739;SDS011;45234;48.148;17.128;2023-05-10T03:33:05;6.95;;;4.50;;
24739;SDS011;45234;48.148;17.128;2023-05-10T03:35:36;6.60;;;4.93;;
24739;SDS011;45234;48.148;17.128;2023-05-10T03:38:04;7.22;;;4.65;;
24739;SDS011;45234;48.148;17.128;2023-05-10T03:40:31;8.35;;;4.55;;
24739;SDS011;45234;48.148;17.128;2023-05-10T03:42:58;6.88;;;5.45;;
24739;SDS011;45234;48.148;17.128;2023-05-10T03:45:25;10.20;;;4.70;;
24739;SDS011;45234;48.148;17.128;2023-05-10T03:47:52;9.40;;;4.88;;
24739;SDS011;45234;48.148;17.128;2023-05-10T03:50:20;9.57;;;5.20;;
24739;SDS011;45234;48.148;17.128;2023-05-10T03:52:47;5.85;;;4.35;;
24739;SDS011;45234;48.148;17.128;2023-05-10T03:55:14;7.97;;;4.68;;
24739;SDS011;45234;48.148;17.128;2023-05-10T03:57:44;7.13;;;5.00;;
24739;SDS011;45234;48.148;17.128;2023-05-10T04:00:11;9.20;;;5.15;;
24739;SDS011;45234;48.148;17.128;2023-05-10T04:02:41;9.15;;;5.68;;
24739;SDS011;45234;48.148;17.128;2023-05-10T04:05:15;9.20;;;5.13;;
24739;SDS011;45234;48.148;17.128;2023-05-10T04:07:41;7.50;;;6.22;;
24739;SDS011;45234;48.148;17.128;2023-05-10T04:10:10;9.43;;;5.30;;
24739;SDS011;45234;48.148;17.128;2023-05-10T04:12:37;7.35;;;5.78;;
24739;SDS011;45234;48.148;17.128;2023-05-10T04:15:04;9.90;;;5.95;;
24739;SDS011;45234;48.148;17.128;2023-05-10T04:17:32;10.55;;;5.20;;
24739;SDS011;45234;48.148;17.128;2023-05-10T04:19:59;9.32;;;5.45;;
24739;SDS011;45234;48.148;17.128;2023-05-10T04:22:28;8.88;;;5.53;;
24739;SDS011;45234;48.148;17.128;2023-05-10T04:24:55;12.35;;;5.50;;
24739;SDS011;45234;48.148;17.128;2023-05-10T04:27:22;11.57;;;5.25;;
24739;SDS011;45234;48.148;17.128;2023-05-10T04:29:48;9.18;;;5.00;;
24739;SDS011;45234;48.148;17.128;2023-05-10T04:32:16;7.57;;;5.50;;
24739;SDS011;45234;48.148;17.128;2023-05-10T04:34:44;8.73;;;6.20;;
24739;SDS011;45234;48.148;17.128;2023-05-10T04:37:11;10.85;;;6.13;;
24739;SDS011;45234;48.148;17.128;2023-05-10T04:39:38;10.00;;;6.15;;
24739;SDS011;45234;48.148;17.128;2023-05-10T04:42:07;8.18;;;6.28;;
24739;SDS011;45234;48.148;17.128;2023-05-10T04:44:34;8.00;;;6.13;;
24739;SDS011;45234;48.148;17.128;2023-05-10T04:47:02;11.60;;;6.88;;
24739;SDS011;45234;48.148;17.128;2023-05-10T04:49:29;10.13;;;6.70;;
24739;SDS011;45234;48.148;17.128;2023-05-10T04:51:56;8.43;;;6.28;;
24739;SDS011;45234;48.148;17.128;2023-05-10T04:54:23;9.63;;;7.40;;
24739;SDS011;45234;48.148;17.128;2023-05-10T04:56:50;14.25;;;7.93;;
24739;SDS011;45234;48.148;17.128;2023-05-10T04:59:17;10.15;;;7.05;;
24739;SDS011;45234;48.148;17.128;2023-05-10T05:01:44;8.20;;;6.70;;
24739;SDS011;45234;48.148;17.128;2023-05-10T05:04:11;8.95;;;7.13;;
24739;SDS011;45234;48.148;17.128;2023-05-10T05:06:37;12.93;;;7.20;;
24739;SDS011;45234;48.148;17.128;2023-05-10T05:09:04;9.88;;;7.35;;
24739;SDS011;45234;48.148;17.128;2023-05-10T05:11:31;11.18;;;7.32;;
24739;SDS011;45234;48.148;17.128;2023-05-10T05:13:58;10.88;;;6.90;;
24739;SDS011;45234;48.148;17.128;2023-05-10T05:16:25;9.82;;;6.38;;
24739;SDS011;45234;48.148;17.128;2023-05-10T05:18:52;8.75;;;7.13;;
24739;SDS011;45234;48.148;17.128;2023-05-10T05:21:19;9.45;;;6.50;;
24739;SDS011;45234;48.148;17.128;2023-05-10T05:23:47;7.18;;;6.43;;
24739;SDS011;45234;48.148;17.128;2023-05-10T05:26:14;10.35;;;6.13;;
24739;SDS011;45234;48.148;17.128;2023-05-10T05:28:41;8.68;;;6.90;;
24739;SDS011;45234;48.148;17.128;2023-05-10T05:31:10;11.77;;;6.20;;
24739;SDS011;45234;48.148;17.128;2023-05-10T05:33:37;9.32;;;6.95;;
24739;SDS011;45234;48.148;17.128;2023-05-10T05:36:04;7.07;;;6.32;;
24739;SDS011;45234;48.148;17.128;2023-05-10T05:38:32;8.38;;;6.45;;
24739;SDS011;45234;48.148;17.128;2023-05-10T05:40:59;7.97;;;6.32;;
24739;SDS011;45234;48.148;17.128;2023-05-10T05:43:26;7.70;;;6.72;;
24739;SDS011;45234;48.148;17.128;2023-05-10T05:45:53;11.50;;;6.32;;
24739;SDS011;45234;48.148;17.128;2023-05-10T05:48:21;7.65;;;6.03;;
24739;SDS011;45234;48.148;17.128;2023-05-10T05:50:47;8.20;;;6.57;;
24739;SDS011;45234;48.148;17.128;2023-05-10T05:53:14;8.98;;;6.78;;
24739;SDS011;45234;48.148;17.128;2023-05-10T05:55:50;6.85;;;5.57;;
24739;SDS011;45234;48.148;17.128;2023-05-10T05:58:18;6.78;;;6.07;;
24739;SDS011;45234;48.148;17.128;2023-05-10T06:00:46;6.35;;;5.68;;
24739;SDS011;45234;48.148;17.128;2023-05-10T06:03:13;6.78;;;5.30;;
24739;SDS011;45234;48.148;17.128;2023-05-10T06:05:41;8.98;;;6.25;;
24739;SDS011;45234;48.148;17.128;2023-05-10T06:08:08;8.02;;;6.43;;
24739;SDS011;45234;48.148;17.128;2023-05-10T06:10:35;7.32;;;5.75;;
24739;SDS011;45234;48.148;17.128;2023-05-10T06:13:02;7.50;;;5.90;;
24739;SDS011;45234;48.148;17.128;2023-05-10T06:15:30;9.70;;;6.45;;
24739;SDS011;45234;48.148;17.128;2023-05-10T06:17:58;7.82;;;5.68;;
24739;SDS011;45234;48.148;17.128;2023-05-10T06:20:25;8.55;;;5.97;;
24739;SDS011;45234;48.148;17.128;2023-05-10T06:22:53;7.57;;;5.78;;
24739;SDS011;45234;48.148;17.128;2023-05-10T06:25:20;8.35;;;6.03;;
24739;SDS011;45234;48.148;17.128;2023-05-10T06:27:47;8.50;;;5.20;;
24739;SDS011;45234;48.148;17.128;2023-05-10T06:30:18;5.82;;;5.32;;
24739;SDS011;45234;48.148;17.128;2023-05-10T06:32:46;6.38;;;5.63;;
24739;SDS011;45234;48.148;17.128;2023-05-10T06:35:13;6.15;;;5.47;;
24739;SDS011;45234;48.148;17.128;2023-05-10T06:37:40;10.23;;;6.07;;
24739;SDS011;45234;48.148;17.128;2023-05-10T06:40:13;6.80;;;5.75;;
24739;SDS011;45234;48.148;17.128;2023-05-10T06:42:40;8.60;;;5.80;;
24739;SDS011;45234;48.148;17.128;2023-05-10T06:45:08;11.25;;;6.05;;
24739;SDS011;45234;48.148;17.128;2023-05-10T06:47:36;8.25;;;6.10;;
24739;SDS011;45234;48.148;17.128;2023-05-10T06:50:04;8.02;;;5.95;;
24739;SDS011;45234;48.148;17.128;2023-05-10T06:52:31;6.88;;;5.20;;
24739;SDS011;45234;48.148;17.128;2023-05-10T06:54:58;6.20;;;5.22;;
24739;SDS011;45234;48.148;17.128;2023-05-10T06:57:28;5.20;;;4.70;;
24739;SDS011;45234;48.148;17.128;2023-05-10T07:00:00;6.32;;;5.20;;
24739;SDS011;45234;48.148;17.128;2023-05-10T07:02:32;5.88;;;5.15;;
24739;SDS011;45234;48.148;17.128;2023-05-10T07:04:59;9.63;;;5.82;;
24739;SDS011;45234;48.148;17.128;2023-05-10T07:07:30;8.73;;;5.60;;
24739;SDS011;45234;48.148;17.128;2023-05-10T07:09:57;10.73;;;5.70;;
24739;SDS011;45234;48.148;17.128;2023-05-10T07:12:24;9.40;;;5.38;;
24739;SDS011;45234;48.148;17.128;2023-05-10T07:14:51;7.18;;;5.22;;
24739;SDS011;45234;48.148;17.128;2023-05-10T07:17:20;8.70;;;5.05;;
24739;SDS011;45234;48.148;17.128;2023-05-10T07:19:48;7.47;;;5.30;;
24739;SDS011;45234;48.148;17.128;2023-05-10T07:22:17;6.20;;;4.90;;
24739;SDS011;45234;48.148;17.128;2023-05-10T07:24:45;8.27;;;5.30;;
24739;SDS011;45234;48.148;17.128;2023-05-10T07:27:12;7.22;;;4.55;;
24739;SDS011;45234;48.148;17.128;2023-05-10T07:29:39;7.03;;;4.10;;
24739;SDS011;45234;48.148;17.128;2023-05-10T07:32:06;10.68;;;4.57;;
24739;SDS011;45234;48.148;17.128;2023-05-10T07:34:33;6.93;;;4.15;;
24739;SDS011;45234;48.148;17.128;2023-05-10T07:37:00;6.45;;;4.38;;
24739;SDS011;45234;48.148;17.128;2023-05-10T07:39:27;7.03;;;4.65;;
24739;SDS011;45234;48.148;17.128;2023-05-10T07:41:55;11.90;;;3.80;;
24739;SDS011;45234;48.148;17.128;2023-05-10T07:44:23;6.15;;;3.75;;
24739;SDS011;45234;48.148;17.128;2023-05-10T07:46:51;5.53;;;3.90;;
24739;SDS011;45234;48.148;17.128;2023-05-10T07:49:19;9.50;;;3.83;;
24739;SDS011;45234;48.148;17.128;2023-05-10T07:51:49;5.60;;;4.50;;
24739;SDS011;45234;48.148;17.128;2023-05-10T07:54:17;4.75;;;3.88;;
24739;SDS011;45234;48.148;17.128;2023-05-10T07:56:45;7.05;;;4.25;;
24739;SDS011;45234;48.148;17.128;2023-05-10T07:59:14;3.60;;;3.30;;
24739;SDS011;45234;48.148;17.128;2023-05-10T08:01:45;4.80;;;3.38;;
24739;SDS011;45234;48.148;17.128;2023-05-10T08:04:13;4.00;;;3.58;;
24739;SDS011;45234;48.148;17.128;2023-05-10T08:06:41;5.03;;;3.30;;
24739;SDS011;45234;48.148;17.128;2023-05-10T08:09:08;9.48;;;3.92;;
24739;SDS011;45234;48.148;17.128;2023-05-10T08:11:36;11.43;;;4.57;;
24739;SDS011;45234;48.148;17.128;2023-05-10T08:14:03;9.98;;;3.90;;
24739;SDS011;45234;48.148;17.128;2023-05-10T08:16:30;5.80;;;3.60;;
24739;SDS011;45234;48.148;17.128;2023-05-10T08:18:58;9.52;;;4.45;;
24739;SDS011;45234;48.148;17.128;2023-05-10T08:21:26;4.53;;;3.63;;
24739;SDS011;45234;48.148;17.128;2023-05-10T08:23:56;7.85;;;4.18;;
24739;SDS011;45234;48.148;17.128;2023-05-10T08:26:23;5.00;;;4.10;;
24739;SDS011;45234;48.148;17.128;2023-05-10T08:28:51;5.93;;;3.63;;
24739;SDS011;45234;48.148;17.128;2023-05-10T08:31:18;7.65;;;3.92;;
24739;SDS011;45234;48.148;17.128;2023-05-10T08:33:45;5.82;;;3.53;;
24739;SDS011;45234;48.148;17.128;2023-05-10T08:36:12;6.60;;;3.97;;
24739;SDS011;45234;48.148;17.128;2023-05-10T08:38:42;5.05;;;3.83;;
24739;SDS011;45234;48.148;17.128;2023-05-10T08:41:10;4.40;;;4.00;;
24739;SDS011;45234;48.148;17.128;2023-05-10T08:43:38;4.80;;;3.40;;
24739;SDS011;45234;48.148;17.128;2023-05-10T08:46:08;8.23;;;3.63;;
24739;SDS011;45234;48.148;17.128;2023-05-10T08:48:39;5.63;;;3.53;;
24739;SDS011;45234;48.148;17.128;2023-05-10T08:51:08;5.32;;;3.80;;
24739;SDS011;45234;48.148;17.128;2023-05-10T08:53:38;5.78;;;3.72;;
24739;SDS011;45234;48.148;17.128;2023-05-10T08:56:07;7.90;;;3.85;;
24739;SDS011;45234;48.148;17.128;2023-05-10T08:58:36;5.82;;;3.33;;
24739;SDS011;45234;48.148;17.128;2023-05-10T09:01:04;4.45;;;3.75;;
24739;SDS011;45234;48.148;17.128;2023-05-10T09:03:32;12.90;;;5.03;;
24739;SDS011;45234;48.148;17.128;2023-05-10T09:06:00;5.68;;;4.35;;
24739;SDS011;45234;48.148;17.128;2023-05-10T09:08:27;5.25;;;4.35;;
24739;SDS011;45234;48.148;17.128;2023-05-10T09:10:55;9.68;;;4.40;;
24739;SDS011;45234;48.148;17.128;2023-05-10T09:13:22;6.55;;;3.95;;
24739;SDS011;45234;48.148;17.128;2023-05-10T09:15:50;6.03;;;4.20;;
24739;SDS011;45234;48.148;17.128;2023-05-10T09:18:18;8.93;;;4.10;;
24739;SDS011;45234;48.148;17.128;2023-05-10T09:20:45;7.43;;;3.28;;
24739;SDS011;45234;48.148;17.128;2023-05-10T09:23:12;5.57;;;3.75;;
24739;SDS011;45234;48.148;17.128;2023-05-10T09:25:41;6.32;;;4.43;;
24739;SDS011;45234;48.148;17.128;2023-05-10T09:28:08;5.30;;;3.85;;
24739;SDS011;45234;48.148;17.128;2023-05-10T09:30:35;5.75;;;4.53;;
24739;SDS011;45234;48.148;17.128;2023-05-10T09:33:03;5.10;;;4.00;;
24739;SDS011;45234;48.148;17.128;2023-05-10T09:35:31;6.00;;;4.50;;
24739;SDS011;45234;48.148;17.128;2023-05-10T09:38:00;5.22;;;3.90;;
24739;SDS011;45234;48.148;17.128;2023-05-10T09:40:29;5.20;;;3.80;;
24739;SDS011;45234;48.148;17.128;2023-05-10T09:42:58;3.97;;;3.40;;
24739;SDS011;45234;48.148;17.128;2023-05-10T09:45:33;4.63;;;3.83;;
24739;SDS011;45234;48.148;17.128;2023-05-10T09:48:04;7.75;;;3.70;;
24739;SDS011;45234;48.148;17.128;2023-05-10T09:50:32;4.15;;;3.50;;
24739;SDS011;45234;48.148;17.128;2023-05-10T09:53:00;4.75;;;3.33;;
24739;SDS011;45234;48.148;17.128;2023-05-10T09:58:13;7.95;;;3.53;;
24739;SDS011;45234;48.148;17.128;2023-05-10T10:00:41;5.55;;;3.03;;
24739;SDS011;45234;48.148;17.128;2023-05-10T10:03:13;4.75;;;3.28;;
24739;SDS011;45234;48.148;17.128;2023-05-10T10:05:41;3.25;;;2.75;;
24739;SDS011;45234;48.148;17.128;2023-05-10T10:08:10;6.10;;;3.00;;
24739;SDS011;45234;48.148;17.128;2023-05-10T10:10:38;4.03;;;3.60;;
24739;SDS011;45234;48.148;17.128;2023-05-10T10:13:07;4.85;;;3.58;;
24739;SDS011;45234;48.148;17.128;2023-05-10T10:15:35;5.72;;;3.20;;
24739;SDS011;45234;48.148;17.128;2023-05-10T10:18:02;9.73;;;3.75;;
24739;SDS011;45234;48.148;17.128;2023-05-10T10:20:31;3.67;;;2.88;;
24739;SDS011;45234;48.148;17.128;2023-05-10T10:22:59;5.72;;;3.22;;
24739;SDS011;45234;48.148;17.128;2023-05-10T10:25:26;6.22;;;3.35;;
24739;SDS011;45234;48.148;17.128;2023-05-10T10:28:06;10.50;;;3.15;;
24739;SDS011;45234;48.148;17.128;2023-05-10T10:30:42;4.15;;;2.92;;
24739;SDS011;45234;48.148;17.128;2023-05-10T10:36:40;3.70;;;3.33;;
24739;SDS011;45234;48.148;17.128;2023-05-10T10:39:11;5.85;;;3.15;;
24739;SDS011;45234;48.148;17.128;2023-05-10T10:41:41;7.13;;;3.33;;
24739;SDS011;45234;48.148;17.128;2023-05-10T10:47:01;5.63;;;2.83;;
24739;SDS011;45234;48.148;17.128;2023-05-10T10:49:45;6.35;;;3.40;;
24739;SDS011;45234;48.148;17.128;2023-05-10T10:54:57;3.10;;;2.80;;
24739;SDS011;45234;48.148;17.128;2023-05-10T10:57:32;3.47;;;3.13;;
24739;SDS011;45234;48.148;17.128;2023-05-10T11:00:19;10.63;;;3.25;;
24739;SDS011;45234;48.148;17.128;2023-05-10T11:05:44;4.50;;;2.95;;
24739;SDS011;45234;48.148;17.128;2023-05-10T11:08:26;7.88;;;2.67;;
24739;SDS011;45234;48.148;17.128;2023-05-10T11:15:55;4.15;;;2.70;;
24739;SDS011;45234;48.148;17.128;2023-05-10T11:18:24;7.35;;;2.75;;
24739;SDS011;45234;48.148;17.128;2023-05-10T11:20:58;8.82;;;2.92;;
24739;SDS011;45234;48.148;17.128;2023-05-10T11:23:29;11.57;;;3.50;;
24739;SDS011;45234;48.148;17.128;2023-05-10T11:26:09;5.22;;;3.28;;
24739;SDS011;45234;48.148;17.128;2023-05-10T11:28:43;4.40;;;2.90;;
24739;SDS011;45234;48.148;17.128;2023-05-10T11:31:18;9.38;;;2.92;;
24739;SDS011;45234;48.148;17.128;2023-05-10T11:33:47;6.35;;;2.92;;
24739;SDS011;45234;48.148;17.128;2023-05-10T11:39:28;11.00;;;3.63;;
24739;SDS011;45234;48.148;17.128;2023-05-10T11:41:57;7.03;;;3.35;;
24739;SDS011;45234;48.148;17.128;2023-05-10T11:44:33;4.28;;;2.65;;
24739;SDS011;45234;48.148;17.128;2023-05-10T11:47:01;5.53;;;2.58;;
24739;SDS011;45234;48.148;17.128;2023-05-10T11:49:30;4.05;;;2.47;;
24739;SDS011;45234;48.148;17.128;2023-05-10T11:52:04;4.18;;;2.70;;
24739;SDS011;45234;48.148;17.128;2023-05-10T11:54:32;8.00;;;2.70;;
24739;SDS011;45234;48.148;17.128;2023-05-10T11:57:00;4.38;;;2.45;;
24739;SDS011;45234;48.148;17.128;2023-05-10T11:59:28;7.28;;;2.50;;
24739;SDS011;45234;48.148;17.128;2023-05-10T12:01:55;4.50;;;2.60;;
24739;SDS011;45234;48.148;17.128;2023-05-10T12:04:24;6.03;;;2.30;;
24739;SDS011;45234;48.148;17.128;2023-05-10T12:06:54;4.40;;;2.17;;
24739;SDS011;45234;48.148;17.128;2023-05-10T12:09:21;10.07;;;2.92;;
24739;SDS011;45234;48.148;17.128;2023-05-10T12:12:08;5.07;;;2.20;;
24739;SDS011;45234;48.148;17.128;2023-05-10T12:14:36;5.03;;;2.25;;
24739;SDS011;45234;48.148;17.128;2023-05-10T12:17:03;3.38;;;2.00;;
24739;SDS011;45234;48.148;17.128;2023-05-10T12:19:36;5.10;;;2.55;;
24739;SDS011;45234;48.148;17.128;2023-05-10T12:22:05;3.53;;;1.92;;
24739;SDS011;45234;48.148;17.128;2023-05-10T12:24:36;2.92;;;1.95;;
24739;SDS011;45234;48.148;17.128;2023-05-10T12:27:08;14.48;;;2.25;;
24739;SDS011;45234;48.148;17.128;2023-05-10T12:29:35;4.35;;;2.10;;
24739;SDS011;45234;48.148;17.128;2023-05-10T12:32:02;5.43;;;1.70;;
24739;SDS011;45234;48.148;17.128;2023-05-10T12:34:33;7.43;;;2.65;;
24739;SDS011;45234;48.148;17.128;2023-05-10T12:37:03;4.93;;;2.00;;
24739;SDS011;45234;48.148;17.128;2023-05-10T12:39:43;4.82;;;2.10;;
24739;SDS011;45234;48.148;17.128;2023-05-10T12:42:14;8.02;;;2.33;;
24739;SDS011;45234;48.148;17.128;2023-05-10T12:44:44;3.95;;;1.83;;
24739;SDS011;45234;48.148;17.128;2023-05-10T12:47:11;4.47;;;2.10;;
24739;SDS011;45234;48.148;17.128;2023-05-10T12:49:38;5.15;;;2.08;;
24739;SDS011;45234;48.148;17.128;2023-05-10T12:52:05;3.30;;;1.90;;
24739;SDS011;45234;48.148;17.128;2023-05-10T12:54:33;6.35;;;2.40;;
24739;SDS011;45234;48.148;17.128;2023-05-10T12:57:00;3.58;;;1.95;;
24739;SDS011;45234;48.148;17.128;2023-05-10T12:59:27;7.75;;;2.47;;
24739;SDS011;45234;48.148;17.128;2023-05-10T13:01:54;5.28;;;2.67;;
24739;SDS011;45234;48.148;17.128;2023-05-10T13:04:22;11.85;;;2.92;;
24739;SDS011;45234;48.148;17.128;2023-05-10T13:06:51;4.03;;;1.90;;
24739;SDS011;45234;48.148;17.128;2023-05-10T13:09:20;6.68;;;2.67;;
24739;SDS011;45234;48.148;17.128;2023-05-10T13:11:48;4.15;;;1.98;;
24739;SDS011;45234;48.148;17.128;2023-05-10T13:14:16;5.25;;;2.38;;
24739;SDS011;45234;48.148;17.128;2023-05-10T13:16:44;3.83;;;2.00;;
24739;SDS011;45234;48.148;17.128;2023-05-10T13:19:12;4.35;;;2.00;;
24739;SDS011;45234;48.148;17.128;2023-05-10T13:21:39;7.50;;;2.22;;
24739;SDS011;45234;48.148;17.128;2023-05-10T13:24:07;5.90;;;2.40;;
24739;SDS011;45234;48.148;17.128;2023-05-10T13:26:34;8.43;;;2.28;;
24739;SDS011;45234;48.148;17.128;2023-05-10T13:29:03;9.38;;;2.58;;
24739;SDS011;45234;48.148;17.128;2023-05-10T13:31:30;13.52;;;2.65;;
24739;SDS011;45234;48.148;17.128;2023-05-10T13:33:56;12.98;;;2.53;;
24739;SDS011;45234;48.148;17.128;2023-05-10T13:36:23;4.10;;;2.17;;
24739;SDS011;45234;48.148;17.128;2023-05-10T13:38:53;6.90;;;2.20;;
24739;SDS011;45234;48.148;17.128;2023-05-10T13:41:20;9.18;;;2.35;;
24739;SDS011;45234;48.148;17.128;2023-05-10T13:43:47;8.80;;;2.53;;
24739;SDS011;45234;48.148;17.128;2023-05-10T13:46:14;4.13;;;2.25;;
24739;SDS011;45234;48.148;17.128;2023-05-10T13:48:41;5.70;;;2.60;;
24739;SDS011;45234;48.148;17.128;2023-05-10T13:51:08;3.53;;;2.33;;
24739;SDS011;45234;48.148;17.128;2023-05-10T13:53:35;3.50;;;2.10;;
24739;SDS011;45234;48.148;17.128;2023-05-10T13:56:04;3.95;;;2.40;;
24739;SDS011;45234;48.148;17.128;2023-05-10T13:58:31;8.40;;;2.17;;
24739;SDS011;45234;48.148;17.128;2023-05-10T14:00:59;6.55;;;2.08;;
24739;SDS011;45234;48.148;17.128;2023-05-10T14:03:27;3.33;;;2.15;;
24739;SDS011;45234;48.148;17.128;2023-05-10T14:05:54;5.45;;;1.90;;
24739;SDS011;45234;48.148;17.128;2023-05-10T14:08:23;7.10;;;2.38;;
24739;SDS011;45234;48.148;17.128;2023-05-10T14:10:53;5.10;;;1.75;;
24739;SDS011;45234;48.148;17.128;2023-05-10T14:13:23;5.68;;;1.83;;
24739;SDS011;45234;48.148;17.128;2023-05-10T14:15:50;3.00;;;2.00;;
24739;SDS011;45234;48.148;17.128;2023-05-10T14:18:20;4.20;;;2.10;;
24739;SDS011;45234;48.148;17.128;2023-05-10T14:20:52;4.80;;;1.93;;
24739;SDS011;45234;48.148;17.128;2023-05-10T14:23:19;5.05;;;2.20;;
24739;SDS011;45234;48.148;17.128;2023-05-10T14:25:50;7.18;;;1.90;;
24739;SDS011;45234;48.148;17.128;2023-05-10T14:28:17;2.50;;;2.13;;
24739;SDS011;45234;48.148;17.128;2023-05-10T14:30:46;3.53;;;2.10;;
24739;SDS011;45234;48.148;17.128;2023-05-10T14:33:17;4.25;;;2.20;;
24739;SDS011;45234;48.148;17.128;2023-05-10T14:35:49;4.57;;;2.22;;
24739;SDS011;45234;48.148;17.128;2023-05-10T14:38:18;2.53;;;1.90;;
24739;SDS011;45234;48.148;17.128;2023-05-10T14:40:44;3.67;;;1.63;;
24739;SDS011;45234;48.148;17.128;2023-05-10T14:43:17;4.03;;;2.13;;
24739;SDS011;45234;48.148;17.128;2023-05-10T14:45:47;3.97;;;1.83;;
24739;SDS011;45234;48.148;17.128;2023-05-10T14:48:22;6.55;;;2.33;;
24739;SDS011;45234;48.148;17.128;2023-05-10T14:51:03;3.90;;;2.30;;
24739;SDS011;45234;48.148;17.128;2023-05-10T14:53:34;2.80;;;1.58;;
24739;SDS011;45234;48.148;17.128;2023-05-10T14:56:02;4.68;;;1.90;;
24739;SDS011;45234;48.148;17.128;2023-05-10T14:58:32;2.72;;;2.53;;
24739;SDS011;45234;48.148;17.128;2023-05-10T15:01:01;6.95;;;2.10;;
24739;SDS011;45234;48.148;17.128;2023-05-10T15:03:28;6.85;;;2.88;;
24739;SDS011;45234;48.148;17.128;2023-05-10T15:05:58;7.97;;;2.30;;
24739;SDS011;45234;48.148;17.128;2023-05-10T15:08:29;7.97;;;2.55;;
24739;SDS011;45234;48.148;17.128;2023-05-10T15:10:57;9.95;;;2.00;;
24739;SDS011;45234;48.148;17.128;2023-05-10T15:13:26;2.13;;;1.90;;
24739;SDS011;45234;48.148;17.128;2023-05-10T15:15:53;9.55;;;2.20;;
24739;SDS011;45234;48.148;17.128;2023-05-10T15:18:20;2.38;;;2.03;;
24739;SDS011;45234;48.148;17.128;2023-05-10T15:20:49;4.85;;;2.50;;
24739;SDS011;45234;48.148;17.128;2023-05-10T15:23:16;5.22;;;1.90;;
24739;SDS011;45234;48.148;17.128;2023-05-10T15:25:43;4.35;;;2.08;;
24739;SDS011;45234;48.148;17.128;2023-05-10T15:28:13;3.45;;;2.20;;